| time (UTC) | temp F | wind direction | speed MPH | gust MPH | rain 1hr in | rain 24hr in | rain mn in | humidity % | barometer mb |
| 20260508133115 | 58 | 348 | 4.0 | 10.0 | 0.00 | 0.00 | 0.00 | 21 | 1020.8 |
| 20260508131234 | 58 | 330 | 4.0 | 13.0 | 0.00 | 0.00 | 0.00 | 22 | 1021.0 |
| 20260508124550 | 57 | 358 | 5.0 | 11.0 | 0.00 | 0.00 | 0.00 | 23 | 1021.0 |
| 20260508123650 | 58 | 128 | 2.0 | 9.0 | 0.00 | 0.00 | 0.00 | 24 | 1021.2 |
| 20260508122800 | 57 | 351 | 7.0 | 13.0 | 0.00 | 0.00 | 0.00 | 24 | 1021.3 |
| 20260508120107 | 57 | 329 | 4.0 | 11.0 | 0.00 | 0.00 | 0.00 | 25 | 1021.5 |
| 20260508115215 | 56 | 327 | 7.0 | 12.0 | 0.00 | 0.00 | 0.00 | 25 | 1021.8 |
| 20260508113411 | 56 | 352 | 7.0 | 20.0 | 0.00 | 0.00 | 0.00 | 26 | 1021.9 |
| 20260508112440 | 55 | 340 | 8.0 | 18.0 | 0.00 | 0.00 | 0.00 | 26 | 1021.8 |
| 20260508111530 | 56 | 322 | 3.0 | 12.0 | 0.00 | 0.00 | 0.00 | 25 | 1021.7 |
| 20260508110630 | 56 | 355 | 6.0 | 15.0 | 0.00 | 0.00 | 0.00 | 26 | 1022.0 |
| 20260508105800 | 55 | 344 | 10.0 | 20.0 | 0.00 | 0.00 | 0.00 | 26 | 1022.2 |
| 20260508104855 | 55 | 345 | 6.0 | 20.0 | 0.00 | 0.00 | 0.00 | 26 | 1021.9 |
| 20260508103947 | 54 | 353 | 6.0 | 15.0 | 0.00 | 0.00 | 0.00 | 27 | 1022.2 |
| 20260508102130 | 54 | 333 | 9.0 | 18.0 | 0.00 | 0.00 | 0.00 | 28 | 1022.2 |
| 20260508101238 | 54 | 328 | 6.0 | 14.0 | 0.00 | 0.00 | 0.00 | 29 | 1022.2 |
| 20260508100405 | 54 | 330 | 7.0 | 17.0 | 0.00 | 0.00 | 0.00 | 30 | 1022.3 |
| 20260508095450 | 54 | 325 | 5.0 | 13.0 | 0.00 | 0.00 | 0.00 | 29 | 1022.2 |
| 20260508094550 | 53 | 360 | 7.0 | 18.0 | 0.00 | 0.00 | 0.00 | 29 | 1022.4 |
| 20260508092820 | 53 | 352 | 7.0 | 15.0 | 0.00 | 0.00 | 0.00 | 30 | 1022.4 |
| 20260508091935 | 53 | 349 | 7.0 | 15.0 | 0.00 | 0.00 | 0.00 | 31 | 1022.5 |
| 20260508091110 | 53 | 346 | 9.0 | 17.0 | 0.00 | 0.00 | 0.00 | 31 | 1022.7 |
| 20260508090235 | 52 | 360 | 10.0 | 18.0 | 0.00 | 0.00 | 0.00 | 31 | 1022.6 |
| 20260508083534 | 51 | 326 | 5.0 | 17.0 | 0.00 | 0.00 | 0.00 | 34 | 1022.8 |
| 20260508082659 | 51 | 334 | 6.0 | 12.0 | 0.00 | 0.00 | 0.00 | 35 | 1022.9 |
| 20260508081745 | 51 | 340 | 6.0 | 13.0 | 0.00 | 0.00 | 0.00 | 35 | 1023.0 |
| 20260508075855 | 51 | 350 | 6.0 | 13.0 | 0.00 | 0.00 | 0.00 | 36 | 1023.0 |
| 20260508074950 | 50 | 347 | 6.0 | 13.0 | 0.00 | 0.00 | 0.00 | 36 | 1023.1 |
| 20260508074015 | 50 | 346 | 10.0 | 19.0 | 0.00 | 0.00 | 0.00 | 37 | 1023.2 |
| 20260508073120 | 50 | 342 | 9.0 | 18.0 | 0.00 | 0.00 | 0.00 | 36 | 1023.0 |
| 20260508072214 | 49 | 342 | 10.0 | 19.0 | 0.00 | 0.00 | 0.00 | 37 | 1023.1 |
| 20260508071320 | 49 | 341 | 9.0 | 19.0 | 0.00 | 0.00 | 0.00 | 38 | 1023.1 |
| 20260508065515 | 49 | 351 | 8.0 | 14.0 | 0.00 | 0.00 | 0.00 | 39 | 1023.0 |
| 20260508064640 | 48 | 347 | 9.0 | 16.0 | 0.00 | 0.00 | 0.00 | 40 | 1023.1 |
| 20260508063754 | 48 | 339 | 8.0 | 15.0 | 0.00 | 0.00 | 0.00 | 40 | 1023.1 |
| 20260508062918 | 48 | 340 | 9.0 | 17.0 | 0.00 | 0.00 | 0.00 | 41 | 1023.1 |
| 20260508062042 | 47 | 335 | 9.0 | 18.0 | 0.00 | 0.00 | 0.00 | 43 | 1023.1 |
| 20260508061135 | 47 | 334 | 8.0 | 14.0 | 0.00 | 0.00 | 0.00 | 45 | 1023.1 |
| 20260508060320 | 46 | 337 | 9.0 | 15.0 | 0.00 | 0.00 | 0.00 | 45 | 1023.1 |
| 20260508055425 | 46 | 345 | 7.0 | 15.0 | 0.00 | 0.00 | 0.00 | 46 | 1023.1 |
| 20260508054535 | 46 | 349 | 7.0 | 14.0 | 0.00 | 0.00 | 0.00 | 47 | 1023.1 |
| 20260508053635 | 45 | 338 | 7.0 | 14.0 | 0.00 | 0.00 | 0.00 | 48 | 1023.2 |
| 20260508052750 | 45 | 343 | 6.0 | 10.0 | 0.00 | 0.00 | 0.00 | 50 | 1023.1 |
| 20260508051845 | 44 | 348 | 7.0 | 14.0 | 0.00 | 0.00 | 0.00 | 51 | 1023.1 |
| 20260508051005 | 43 | 344 | 6.0 | 14.0 | 0.00 | 0.00 | 0.00 | 52 | 1023.1 |
| 20260508050125 | 43 | 343 | 7.0 | 13.0 | 0.00 | 0.00 | 0.00 | 53 | 1023.1 |
| 20260508045230 | 43 | 341 | 6.0 | 12.0 | 0.00 | 0.00 | 0.00 | 53 | 1023.1 |
| 20260508044322 | 42 | 342 | 6.0 | 12.0 | 0.00 | 0.00 | 0.00 | 54 | 1023.1 |
| 20260508043405 | 42 | 342 | 5.0 | 12.0 | 0.00 | 0.00 | 0.00 | 55 | 1023.3 |
| 20260508042524 | 41 | 343 | 5.0 | 11.0 | 0.00 | 0.00 | 0.00 | 55 | 1023.3 |
| 20260508041605 | 41 | 345 | 6.0 | 10.0 | 0.00 | 0.00 | 0.00 | 56 | 1023.3 |
| 20260508040705 | 40 | 344 | 6.0 | 9.0 | 0.00 | 0.00 | 0.00 | 56 | 1023.2 |
| 20260508035740 | 40 | 344 | 6.0 | 10.0 | 0.00 | 0.00 | 0.00 | 57 | 1023.2 |
| 20260508034820 | 39 | 344 | 6.0 | 10.0 | 0.00 | 0.00 | 0.00 | 57 | 1023.2 |
| 20260508033900 | 39 | 349 | 6.0 | 10.0 | 0.00 | 0.00 | 0.00 | 57 | 1023.1 |
| 20260508033000 | 38 | 348 | 6.0 | 11.0 | 0.00 | 0.00 | 0.00 | 58 | 1023.1 |
| 20260508032105 | 38 | 348 | 6.0 | 9.0 | 0.00 | 0.00 | 0.00 | 58 | 1023.0 |
| 20260508031205 | 38 | 349 | 5.0 | 8.0 | 0.00 | 0.00 | 0.00 | 58 | 1022.9 |
| 20260508030304 | 38 | 348 | 5.0 | 8.0 | 0.00 | 0.00 | 0.00 | 58 | 1022.9 |
| 20260508025330 | 38 | 347 | 5.0 | 8.0 | 0.00 | 0.00 | 0.00 | 58 | 1022.8 |
| 20260508024504 | 37 | 347 | 5.0 | 8.0 | 0.00 | 0.00 | 0.00 | 58 | 1022.7 |
| 20260508023545 | 37 | 349 | 5.0 | 8.0 | 0.00 | 0.00 | 0.00 | 58 | 1022.6 |
| 20260508022650 | 37 | 349 | 5.0 | 8.0 | 0.00 | 0.00 | 0.00 | 58 | 1022.4 |
| 20260508021837 | 38 | 347 | 6.0 | 9.0 | 0.00 | 0.00 | 0.00 | 58 | 1022.3 |
| 20260508021015 | 38 | 345 | 5.0 | 8.0 | 0.00 | 0.00 | 0.00 | 58 | 1022.2 |
| 20260508020107 | 38 | 348 | 5.0 | 8.0 | 0.00 | 0.00 | 0.00 | 57 | 1022.1 |
| 20260508015145 | 38 | 344 | 5.0 | 7.0 | 0.00 | 0.00 | 0.00 | 57 | 1022.0 |
| 20260508014305 | 38 | 345 | 5.0 | 7.0 | 0.00 | 0.00 | 0.00 | 56 | 1021.9 |
| 20260508013400 | 39 | 341 | 5.0 | 8.0 | 0.00 | 0.00 | 0.00 | 55 | 1021.7 |
| 20260508012545 | 39 | 342 | 5.0 | 8.0 | 0.00 | 0.00 | 0.00 | 55 | 1021.6 |
| 20260508011710 | 39 | 343 | 5.0 | 8.0 | 0.00 | 0.00 | 0.00 | 55 | 1021.5 |
| 20260508010825 | 39 | 345 | 5.0 | 8.0 | 0.00 | 0.00 | 0.00 | 54 | 1021.4 |
| 20260508005915 | 40 | 349 | 6.0 | 9.0 | 0.00 | 0.00 | 0.00 | 53 | 1021.1 |
| 20260508005008 | 40 | 348 | 6.0 | 10.0 | 0.00 | 0.00 | 0.00 | 53 | 1021.1 |
| 20260508004105 | 40 | 349 | 6.0 | 10.0 | 0.00 | 0.00 | 0.00 | 53 | 1020.9 |
| 20260508003215 | 40 | 352 | 6.0 | 11.0 | 0.00 | 0.00 | 0.00 | 52 | 1020.7 |
| 20260508002335 | 41 | 351 | 6.0 | 12.0 | 0.00 | 0.00 | 0.00 | 52 | 1020.6 |
| 20260508001444 | 41 | 352 | 5.0 | 9.0 | 0.00 | 0.00 | 0.00 | 52 | 1020.5 |
| 20260508000520 | 41 | 353 | 5.0 | 10.0 | 0.00 | 0.00 | 0.00 | 52 | 1020.3 |
| 20260507235605 | 41 | 354 | 5.0 | 10.0 | 0.00 | 0.00 | 0.00 | 51 | 1020.2 |
| 20260507234735 | 41 | 355 | 4.0 | 8.0 | 0.00 | 0.00 | 0.00 | 51 | 1020.0 |
| 20260507233840 | 41 | 354 | 4.0 | 7.0 | 0.00 | 0.00 | 0.00 | 50 | 1019.9 |
| 20260507232915 | 41 | 350 | 4.0 | 6.0 | 0.00 | 0.00 | 0.00 | 50 | 1019.7 |
| 20260507232006 | 42 | 346 | 4.0 | 8.0 | 0.00 | 0.00 | 0.00 | 49 | 1019.6 |
| 20260507231055 | 42 | 348 | 3.0 | 6.0 | 0.00 | 0.00 | 0.00 | 47 | 1019.3 |
| 20260507230225 | 42 | 343 | 4.0 | 7.0 | 0.00 | 0.00 | 0.00 | 47 | 1019.1 |
| 20260507225355 | 43 | 348 | 4.0 | 8.0 | 0.00 | 0.00 | 0.00 | 46 | 1018.9 |
| 20260507224435 | 43 | 341 | 4.0 | 8.0 | 0.00 | 0.00 | 0.00 | 46 | 1018.8 |
| 20260507223508 | 43 | 338 | 3.0 | 6.0 | 0.00 | 0.00 | 0.00 | 45 | 1018.7 |
| 20260507222555 | 43 | 330 | 3.0 | 6.0 | 0.00 | 0.00 | 0.00 | 45 | 1018.6 |
| 20260507221645 | 43 | 339 | 3.0 | 7.0 | 0.00 | 0.00 | 0.00 | 44 | 1018.5 |
| 20260507220729 | 44 | 337 | 4.0 | 7.0 | 0.00 | 0.00 | 0.00 | 43 | 1018.3 |
| 20260507215845 | 44 | 341 | 4.0 | 8.0 | 0.00 | 0.00 | 0.00 | 43 | 1018.2 |
| 20260507214940 | 44 | 338 | 5.0 | 8.0 | 0.00 | 0.00 | 0.00 | 42 | 1018.0 |
| 20260507214045 | 44 | 334 | 4.0 | 9.0 | 0.00 | 0.00 | 0.00 | 42 | 1017.9 |
| 20260507213150 | 44 | 330 | 4.0 | 9.0 | 0.00 | 0.00 | 0.00 | 41 | 1017.7 |
| 20260507212255 | 45 | 331 | 4.0 | 8.0 | 0.00 | 0.00 | 0.00 | 41 | 1017.6 |
| 20260507211405 | 45 | 331 | 3.0 | 6.0 | 0.00 | 0.00 | 0.00 | 41 | 1017.4 |
| 20260507210500 | 45 | 320 | 2.0 | 5.0 | 0.00 | 0.00 | 0.00 | 41 | 1017.2 |
| 20260507205600 | 46 | 336 | 4.0 | 6.0 | 0.00 | 0.00 | 0.00 | 40 | 1017.0 |
| 20260507204710 | 46 | 342 | 5.0 | 7.0 | 0.00 | 0.00 | 0.00 | 40 | 1016.8 |
| 20260507203815 | 45 | 345 | 5.0 | 8.0 | 0.00 | 0.00 | 0.00 | 40 | 1016.7 |
| 20260507202940 | 45 | 342 | 5.0 | 8.0 | 0.00 | 0.00 | 0.00 | 39 | 1016.6 |
| 20260507202049 | 45 | 342 | 5.0 | 8.0 | 0.00 | 0.00 | 0.00 | 39 | 1016.6 |
| 20260507201159 | 45 | 324 | 3.0 | 7.0 | 0.00 | 0.00 | 0.00 | 39 | 1016.6 |
| 20260507200255 | 45 | 294 | 1.0 | 5.0 | 0.00 | 0.00 | 0.00 | 39 | 1016.5 |
| 20260507195350 | 45 | 301 | 1.0 | 4.0 | 0.00 | 0.00 | 0.00 | 39 | 1016.2 |
| 20260507194455 | 45 | 288 | 2.0 | 4.0 | 0.00 | 0.00 | 0.00 | 39 | 1016.1 |
| 20260507193626 | 45 | 279 | 2.0 | 4.0 | 0.00 | 0.00 | 0.00 | 38 | 1015.9 |
| 20260507192740 | 46 | 292 | 2.0 | 4.0 | 0.00 | 0.00 | 0.00 | 40 | 1015.8 |
| 20260507191820 | 46 | 277 | 2.0 | 5.0 | 0.00 | 0.00 | 0.00 | 39 | 1015.5 |
| 20260507190940 | 46 | 271 | 2.0 | 5.0 | 0.00 | 0.00 | 0.00 | 38 | 1015.4 |
| 20260507190035 | 47 | 252 | 2.0 | 4.0 | 0.00 | 0.00 | 0.00 | 38 | 1015.2 |
| 20260507185125 | 47 | 252 | 2.0 | 4.0 | 0.00 | 0.00 | 0.00 | 37 | 1015.0 |
| 20260507184240 | 48 | 244 | 2.0 | 3.0 | 0.00 | 0.00 | 0.00 | 36 | 1014.8 |
| 20260507183325 | 48 | 239 | 2.0 | 3.0 | 0.00 | 0.00 | 0.00 | 35 | 1014.7 |
| 20260507182450 | 49 | 234 | 2.0 | 4.0 | 0.00 | 0.00 | 0.00 | 34 | 1014.5 |
| 20260507181519 | 49 | 225 | 2.0 | 5.0 | 0.00 | 0.00 | 0.00 | 33 | 1014.4 |
| 20260507180649 | 50 | 215 | 3.0 | 6.0 | 0.00 | 0.00 | 0.00 | 33 | 1014.1 |
| 20260507175750 | 50 | 217 | 3.0 | 8.0 | 0.00 | 0.00 | 0.00 | 33 | 1014.1 |
| 20260507174840 | 50 | 206 | 4.0 | 8.0 | 0.00 | 0.00 | 0.00 | 32 | 1014.0 |
| 20260507173920 | 50 | 206 | 4.0 | 8.0 | 0.00 | 0.00 | 0.00 | 32 | 1013.9 |
| 20260507173000 | 51 | 212 | 4.0 | 9.0 | 0.00 | 0.00 | 0.00 | 31 | 1013.6 |
| 20260507172039 | 51 | 222 | 5.0 | 11.0 | 0.00 | 0.00 | 0.00 | 29 | 1013.3 |
| 20260507171125 | 52 | 189 | 3.0 | 8.0 | 0.00 | 0.00 | 0.00 | 30 | 1013.1 |
| 20260507170220 | 52 | 188 | 3.0 | 8.0 | 0.00 | 0.00 | 0.00 | 30 | 1013.2 |
| 20260507165355 | 51 | 184 | 3.0 | 8.0 | 0.00 | 0.00 | 0.00 | 30 | 1013.1 |
| 20260507164515 | 52 | 193 | 4.0 | 11.0 | 0.00 | 0.00 | 0.00 | 30 | 1013.1 |
| 20260507163630 | 51 | 198 | 7.0 | 13.0 | 0.00 | 0.00 | 0.00 | 29 | 1013.0 |
| 20260507162725 | 52 | 207 | 5.0 | 10.0 | 0.00 | 0.00 | 0.00 | 29 | 1012.8 |
| 20260507161745 | 53 | 203 | 5.0 | 11.0 | 0.00 | 0.00 | 0.00 | 29 | 1012.5 |
| 20260507160830 | 53 | 182 | 3.0 | 8.0 | 0.00 | 0.00 | 0.00 | 28 | 1012.4 |
| 20260507155910 | 53 | 182 | 5.0 | 11.0 | 0.00 | 0.00 | 0.00 | 29 | 1012.5 |
| 20260507154953 | 53 | 194 | 5.0 | 13.0 | 0.00 | 0.00 | 0.00 | 29 | 1012.3 |
| 20260507154030 | 53 | 193 | 5.0 | 11.0 | 0.00 | 0.00 | 0.00 | 30 | 1012.2 |
| 20260507153114 | 54 | 179 | 4.0 | 11.0 | 0.00 | 0.00 | 0.00 | 28 | 1012.0 |
| 20260507152210 | 53 | 181 | 5.0 | 11.0 | 0.00 | 0.00 | 0.00 | 25 | 1012.0 |
| 20260507151229 | 54 | 161 | 4.0 | 11.0 | 0.00 | 0.00 | 0.00 | 26 | 1012.0 |
| 20260507150355 | 54 | 183 | 5.0 | 11.0 | 0.00 | 0.00 | 0.00 | 25 | 1011.9 |
| 20260507145444 | 54 | 153 | 5.0 | 9.0 | 0.00 | 0.00 | 0.00 | 25 | 1011.9 |
| 20260507144530 | 55 | 170 | 4.0 | 13.0 | 0.00 | 0.00 | 0.00 | 25 | 1011.8 |
| 20260507143657 | 54 | 150 | 4.0 | 11.0 | 0.00 | 0.00 | 0.00 | 25 | 1011.8 |
| 20260507142825 | 54 | 124 | 4.0 | 10.0 | 0.00 | 0.00 | 0.00 | 25 | 1011.6 |
| 20260507141905 | 55 | 125 | 4.0 | 9.0 | 0.00 | 0.00 | 0.00 | 24 | 1011.5 |
| 20260507140958 | 55 | 145 | 3.0 | 9.0 | 0.00 | 0.00 | 0.00 | 24 | 1011.3 |
| 20260507140112 | 55 | 136 | 4.0 | 10.0 | 0.00 | 0.00 | 0.00 | 24 | 1011.3 |